Aviation Digital Data Service (ADDS)

Output produced by METARs form (0442 UTC 19 August 2019)
found at http://www.aviationweather.gov/metar/data/
 
METAR text: UWLW 190400Z 00000MPS 8000 BKN040CB 18/17 Q1018 R02/290150 NOSIG RMK QFE756
Conditions at: UWLW (ULYANOVSK , RU) observed 0400 UTC 19 August 2019
Temperature: 18.0°C (64°F)
Dewpoint: 17.0°C (63°F) [RH = 94%]
Pressure (altimeter): 30.06 inches Hg (1018.0 mb)
Winds: calm
Visibility: 5 miles ( 8 km)
Ceiling: 4000 feet AGL
Clouds: broken clouds at 4000 feet AGL
Weather: no significant weather observed at this time

METAR text: UWLW 190300Z 07001MPS 8000 BKN040CB 18/17 Q1018 R02/290150 NOSIG RMK QFE756
Conditions at: UWLW (ULYANOVSK , RU) observed 0300 UTC 19 August 2019
Temperature: 18.0°C (64°F)
Dewpoint: 17.0°C (63°F) [RH = 94%]
Pressure (altimeter): 30.06 inches Hg (1018.0 mb)
Winds: from the ENE (70 degrees) at 2 MPH (2 knots; 1.0 m/s)
Visibility: 5 miles ( 8 km)
Ceiling: 4000 feet AGL
Clouds: broken clouds at 4000 feet AGL
Weather: no significant weather observed at this time

METAR text: UWLW 190200Z 05003MPS 8000 SCT040CB 17/17 Q1018 R20/290150 NOSIG RMK QFE758
Conditions at: UWLW (ULYANOVSK , RU) observed 0200 UTC 19 August 2019
Temperature: 17.0°C (63°F)
Dewpoint: 17.0°C (63°F) [RH = 100%]
Pressure (altimeter): 30.06 inches Hg (1018.0 mb)
Winds: from the NE (50 degrees) at 7 MPH (6 knots; 3.1 m/s)
Visibility: 5 miles ( 8 km)
Ceiling: at least 12,000 feet AGL
Clouds: scattered clouds at 4000 feet AGL
Weather: no significant weather observed at this time

METAR text: UWLW 190100Z 27001MPS 8000 -SHRA SCT040CB 18/15 Q1018 R20/290150 NOSIG RMK QFE758
Conditions at: UWLW (ULYANOVSK , RU) observed 0100 UTC 19 August 2019
Temperature: 18.0°C (64°F)
Dewpoint: 15.0°C (59°F) [RH = 83%]
Pressure (altimeter): 30.06 inches Hg (1018.0 mb)
Winds: from the W (270 degrees) at 2 MPH (2 knots; 1.0 m/s)
Visibility: 5 miles ( 8 km)
Ceiling: at least 12,000 feet AGL
Clouds: scattered clouds at 4000 feet AGL
Weather: -SHRA  (light rain showers)

METAR text: UWLW 190000Z 22002MPS 8000 NSC 17/15 Q1018 R20/290150 NOSIG RMK QFE758
Conditions at: UWLW (ULYANOVSK , RU) observed 0000 UTC 19 August 2019
Temperature: 17.0°C (63°F)
Dewpoint: 15.0°C (59°F) [RH = 88%]
Pressure (altimeter): 30.06 inches Hg (1018.0 mb)
Winds: from the SW (220 degrees) at 5 MPH (4 knots; 2.1 m/s)
Visibility: 5 miles ( 8 km)
Ceiling: at least 12,000 feet AGL
Clouds: sky clear below 12,000 feet AGL
Weather: no significant weather observed at this time

METAR text: UWLW 182300Z 00000MPS 8000 NSC 17/15 Q1017 R20/290150 NOSIG RMK QFE757
Conditions at: UWLW (ULYANOVSK , RU) observed 2300 UTC 18 August 2019
Temperature: 17.0°C (63°F)
Dewpoint: 15.0°C (59°F) [RH = 88%]
Pressure (altimeter): 30.03 inches Hg (1017.0 mb)
Winds: calm
Visibility: 5 miles ( 8 km)
Ceiling: at least 12,000 feet AGL
Clouds: sky clear below 12,000 feet AGL
Weather: no significant weather observed at this time

METAR text: UWLW 182200Z 00000MPS 8000 NSC 16/16 Q1017 R20/290150 NOSIG RMK QFE757
Conditions at: UWLW (ULYANOVSK , RU) observed 2200 UTC 18 August 2019
Temperature: 16.0°C (61°F)
Dewpoint: 16.0°C (61°F) [RH = 100%]
Pressure (altimeter): 30.03 inches Hg (1017.0 mb)
Winds: calm
Visibility: 5 miles ( 8 km)
Ceiling: at least 12,000 feet AGL
Clouds: sky clear below 12,000 feet AGL
Weather: no significant weather observed at this time

METAR text: UWLW 182100Z 02001MPS 8000 NSC 17/15 Q1017 R20/290150 NOSIG RMK QFE757
Conditions at: UWLW (ULYANOVSK , RU) observed 2100 UTC 18 August 2019
Temperature: 17.0°C (63°F)
Dewpoint: 15.0°C (59°F) [RH = 88%]
Pressure (altimeter): 30.03 inches Hg (1017.0 mb)
Winds: from the NNE (20 degrees) at 2 MPH (2 knots; 1.0 m/s)
Visibility: 5 miles ( 8 km)
Ceiling: at least 12,000 feet AGL
Clouds: sky clear below 12,000 feet AGL
Weather: no significant weather observed at this time

METAR text: UWLW 182000Z 00000MPS 8000 NSC 17/16 Q1017 R20/290150 NOSIG RMK QFE757
Conditions at: UWLW (ULYANOVSK , RU) observed 2000 UTC 18 August 2019
Temperature: 17.0°C (63°F)
Dewpoint: 16.0°C (61°F) [RH = 94%]
Pressure (altimeter): 30.03 inches Hg (1017.0 mb)
Winds: calm
Visibility: 5 miles ( 8 km)
Ceiling: at least 12,000 feet AGL
Clouds: sky clear below 12,000 feet AGL
Weather: no significant weather observed at this time

METAR text: UWLW 181900Z 10001MPS 8000 SCT040CB 18/16 Q1017 R20/290150 NOSIG RMK QFE757
Conditions at: UWLW (ULYANOVSK , RU) observed 1900 UTC 18 August 2019
Temperature: 18.0°C (64°F)
Dewpoint: 16.0°C (61°F) [RH = 88%]
Pressure (altimeter): 30.03 inches Hg (1017.0 mb)
Winds: from the E (100 degrees) at 2 MPH (2 knots; 1.0 m/s)
Visibility: 5 miles ( 8 km)
Ceiling: at least 12,000 feet AGL
Clouds: scattered clouds at 4000 feet AGL
Weather: no significant weather observed at this time

METAR text: UWLW 181800Z 03001MPS 8000 BKN040CB 18/17 Q1017 R20/290150 NOSIG RMK QFE757
Conditions at: UWLW (ULYANOVSK , RU) observed 1800 UTC 18 August 2019
Temperature: 18.0°C (64°F)
Dewpoint: 17.0°C (63°F) [RH = 94%]
Pressure (altimeter): 30.03 inches Hg (1017.0 mb)
Winds: from the NNE (30 degrees) at 2 MPH (2 knots; 1.0 m/s)
Visibility: 5 miles ( 8 km)
Ceiling: 4000 feet AGL
Clouds: broken clouds at 4000 feet AGL
Weather: no significant weather observed at this time

METAR text: UWLW 181700Z 00000MPS 8000 BKN040CB 19/18 Q1017 R20/290150 NOSIG RMK QFE757
Conditions at: UWLW (ULYANOVSK , RU) observed 1700 UTC 18 August 2019
Temperature: 19.0°C (66°F)
Dewpoint: 18.0°C (64°F) [RH = 94%]
Pressure (altimeter): 30.03 inches Hg (1017.0 mb)
Winds: calm
Visibility: 5 miles ( 8 km)
Ceiling: 4000 feet AGL
Clouds: broken clouds at 4000 feet AGL
Weather: no significant weather observed at this time

METAR text: UWLW 181600Z 19004MPS 4000 -SHRA BKN040CB 22/16 Q1017 R20/CLRD60 NOSIG RMK QFE757
Conditions at: UWLW (ULYANOVSK , RU) observed 1600 UTC 18 August 2019
Temperature: 22.0°C (72°F)
Dewpoint: 16.0°C (61°F) [RH = 69%]
Pressure (altimeter): 30.03 inches Hg (1017.0 mb)
Winds: from the S (190 degrees) at 9 MPH (8 knots; 4.1 m/s)
Visibility: 2.49 miles (4.01 km)
Ceiling: 4000 feet AGL
Clouds: broken clouds at 4000 feet AGL
Weather: -SHRA  (light rain showers)

METAR text: UWLW 181500Z 19007G12MPS 8000 -SHRA SCT040CB 23/14 Q1016 R20/CLRD60 NOSIG RMK QFE756
Conditions at: UWLW (ULYANOVSK , RU) observed 1500 UTC 18 August 2019
Temperature: 23.0°C (73°F)
Dewpoint: 14.0°C (57°F) [RH = 57%]
Pressure (altimeter): 30.00 inches Hg (1016.0 mb)
Winds: from the S (190 degrees) at 16 MPH (14 knots; 7.2 m/s)
gusting to 26 MPH (23 knots; 11.8 m/s)
Visibility: 5 miles ( 8 km)
Ceiling: at least 12,000 feet AGL
Clouds: scattered clouds at 4000 feet AGL
Weather: -SHRA  (light rain showers)

METAR text: UWLW 181400Z 17005MPS 8000 NSC 26/13 Q1016 R20/CLRD60 NOSIG RMK QFE756
Conditions at: UWLW (ULYANOVSK , RU) observed 1400 UTC 18 August 2019
Temperature: 26.0°C (79°F)
Dewpoint: 13.0°C (55°F) [RH = 45%]
Pressure (altimeter): 30.00 inches Hg (1016.0 mb)
Winds: from the S (170 degrees) at 12 MPH (10 knots; 5.1 m/s)
Visibility: 5 miles ( 8 km)
Ceiling: at least 12,000 feet AGL
Clouds: sky clear below 12,000 feet AGL
Weather: no significant weather observed at this time

METAR text: UWLW 181300Z 18007MPS 8000 NSC 27/12 Q1016 R20/CLRD60 NOSIG RMK QFE756
Conditions at: UWLW (ULYANOVSK , RU) observed 1300 UTC 18 August 2019
Temperature: 27.0°C (81°F)
Dewpoint: 12.0°C (54°F) [RH = 39%]
Pressure (altimeter): 30.00 inches Hg (1016.0 mb)
Winds: from the S (180 degrees) at 16 MPH (14 knots; 7.2 m/s)
Visibility: 5 miles ( 8 km)
Ceiling: at least 12,000 feet AGL
Clouds: sky clear below 12,000 feet AGL
Weather: no significant weather observed at this time

METAR text: UWLW 181200Z 18008MPS 8000 NSC 29/12 Q1016 R20/CLRD60 NOSIG RMK QFE756
Conditions at: UWLW (ULYANOVSK , RU) observed 1200 UTC 18 August 2019
Temperature: 29.0°C (84°F)
Dewpoint: 12.0°C (54°F) [RH = 35%]
Pressure (altimeter): 30.00 inches Hg (1016.0 mb)
Winds: from the S (180 degrees) at 18 MPH (16 knots; 8.2 m/s)
Visibility: 5 miles ( 8 km)
Ceiling: at least 12,000 feet AGL
Clouds: sky clear below 12,000 feet AGL
Weather: no significant weather observed at this time

METAR text: UWLW 181100Z 17006MPS 8000 NSC 29/14 Q1015 R20/CLRD60 NOSIG RMK QFE756
Conditions at: UWLW (ULYANOVSK , RU) observed 1100 UTC 18 August 2019
Temperature: 29.0°C (84°F)
Dewpoint: 14.0°C (57°F) [RH = 40%]
Pressure (altimeter): 29.97 inches Hg (1015.0 mb)
Winds: from the S (170 degrees) at 14 MPH (12 knots; 6.2 m/s)
Visibility: 5 miles ( 8 km)
Ceiling: at least 12,000 feet AGL
Clouds: sky clear below 12,000 feet AGL
Weather: no significant weather observed at this time

METAR text: UWLW 181000Z 17005MPS 8000 SCT040 28/15 Q1015 R20/CLRD60 NOSIG RMK QFE756
Conditions at: UWLW (ULYANOVSK , RU) observed 1000 UTC 18 August 2019
Temperature: 28.0°C (82°F)
Dewpoint: 15.0°C (59°F) [RH = 45%]
Pressure (altimeter): 29.97 inches Hg (1015.0 mb)
Winds: from the S (170 degrees) at 12 MPH (10 knots; 5.1 m/s)
Visibility: 5 miles ( 8 km)
Ceiling: at least 12,000 feet AGL
Clouds: scattered clouds at 4000 feet AGL
Weather: no significant weather observed at this time

METAR text: UWLW 180900Z 14004MPS 8000 SCT040 27/16 Q1015 R20/190055 NOSIG RMK QFE755
Conditions at: UWLW (ULYANOVSK , RU) observed 0900 UTC 18 August 2019
Temperature: 27.0°C (81°F)
Dewpoint: 16.0°C (61°F) [RH = 51%]
Pressure (altimeter): 29.97 inches Hg (1015.0 mb)
Winds: from the SE (140 degrees) at 9 MPH (8 knots; 4.1 m/s)
Visibility: 5 miles ( 8 km)
Ceiling: at least 12,000 feet AGL
Clouds: scattered clouds at 4000 feet AGL
Weather: no significant weather observed at this time

METAR text: UWLW 180800Z 15004MPS 8000 SCT040CB 24/15 Q1015 R20/190055 NOSIG RMK QFE755
Conditions at: UWLW (ULYANOVSK , RU) observed 0800 UTC 18 August 2019
Temperature: 24.0°C (75°F)
Dewpoint: 15.0°C (59°F) [RH = 57%]
Pressure (altimeter): 29.97 inches Hg (1015.0 mb)
Winds: from the SSE (150 degrees) at 9 MPH (8 knots; 4.1 m/s)
Visibility: 5 miles ( 8 km)
Ceiling: at least 12,000 feet AGL
Clouds: scattered clouds at 4000 feet AGL
Weather: no significant weather observed at this time

METAR text: UWLW 180700Z 12003MPS 8000 BKN040CB 21/17 Q1014 R20/190055 NOSIG RMK QFE755
Conditions at: UWLW (ULYANOVSK , RU) observed 0700 UTC 18 August 2019
Temperature: 21.0°C (70°F)
Dewpoint: 17.0°C (63°F) [RH = 78%]
Pressure (altimeter): 29.94 inches Hg (1014.0 mb)
Winds: from the ESE (120 degrees) at 7 MPH (6 knots; 3.1 m/s)
Visibility: 5 miles ( 8 km)
Ceiling: 4000 feet AGL
Clouds: broken clouds at 4000 feet AGL
Weather: no significant weather observed at this time

METAR text: UWLW 180600Z 05004MPS 8000 -SHRA BKN040CB 20/20 Q1014 R20/190055 NOSIG RMK QFE755
Conditions at: UWLW (ULYANOVSK , RU) observed 0600 UTC 18 August 2019
Temperature: 20.0°C (68°F)
Dewpoint: 20.0°C (68°F) [RH = 100%]
Pressure (altimeter): 29.94 inches Hg (1014.0 mb)
Winds: from the NE (50 degrees) at 9 MPH (8 knots; 4.1 m/s)
Visibility: 5 miles ( 8 km)
Ceiling: 4000 feet AGL
Clouds: broken clouds at 4000 feet AGL
Weather: -SHRA  (light rain showers)

METAR text: UWLW 180500Z 35002MPS 290V070 8000 -SHRA SCT040CB 19/19 Q1015 R20/190055 NOSIG RMK QFE755
Conditions at: UWLW (ULYANOVSK , RU) observed 0500 UTC 18 August 2019
Temperature: 19.0°C (66°F)
Dewpoint: 19.0°C (66°F) [RH = 100%]
Pressure (altimeter): 29.97 inches Hg (1015.0 mb)
Winds: from the N (350 degrees) at 5 MPH (4 knots; 2.1 m/s)
Visibility: 5 miles ( 8 km)
Ceiling: at least 12,000 feet AGL
Clouds: scattered clouds at 4000 feet AGL
Weather: -SHRA  (light rain showers)

METAR text: UWLW 180400Z 12002MPS 8000 SCT040CB 19/16 Q1014 R20/CLRD60 NOSIG RMK QFE755
Conditions at: UWLW (ULYANOVSK , RU) observed 0400 UTC 18 August 2019
Temperature: 19.0°C (66°F)
Dewpoint: 16.0°C (61°F) [RH = 83%]
Pressure (altimeter): 29.94 inches Hg (1014.0 mb)
Winds: from the ESE (120 degrees) at 5 MPH (4 knots; 2.1 m/s)
Visibility: 5 miles ( 8 km)
Ceiling: at least 12,000 feet AGL
Clouds: scattered clouds at 4000 feet AGL
Weather: no significant weather observed at this time

METAR text: UWLW 180300Z 11002MPS 8000 BKN040CB 18/17 Q1013 R02/CLRD60 NOSIG RMK QFE753
Conditions at: UWLW (ULYANOVSK , RU) observed 0300 UTC 18 August 2019
Temperature: 18.0°C (64°F)
Dewpoint: 17.0°C (63°F) [RH = 94%]
Pressure (altimeter): 29.91 inches Hg (1013.0 mb)
Winds: from the ESE (110 degrees) at 5 MPH (4 knots; 2.1 m/s)
Visibility: 5 miles ( 8 km)
Ceiling: 4000 feet AGL
Clouds: broken clouds at 4000 feet AGL
Weather: no significant weather observed at this time

METAR text: UWLW 180200Z 17002MPS 8000 BKN040CB 19/17 Q1014 R02/CLRD60 NOSIG RMK QFE753
Conditions at: UWLW (ULYANOVSK , RU) observed 0200 UTC 18 August 2019
Temperature: 19.0°C (66°F)
Dewpoint: 17.0°C (63°F) [RH = 88%]
Pressure (altimeter): 29.94 inches Hg (1014.0 mb)
Winds: from the S (170 degrees) at 5 MPH (4 knots; 2.1 m/s)
Visibility: 5 miles ( 8 km)
Ceiling: 4000 feet AGL
Clouds: broken clouds at 4000 feet AGL
Weather: no significant weather observed at this time

METAR text: UWLW 180100Z 11001MPS 5000 BR NSC 18/17 Q1013 R02/CLRD60 NOSIG RMK QFE753
Conditions at: UWLW (ULYANOVSK , RU) observed 0100 UTC 18 August 2019
Temperature: 18.0°C (64°F)
Dewpoint: 17.0°C (63°F) [RH = 94%]
Pressure (altimeter): 29.91 inches Hg (1013.0 mb)
Winds: from the ESE (110 degrees) at 2 MPH (2 knots; 1.0 m/s)
Visibility: 3 miles ( 5 km)
Ceiling: at least 12,000 feet AGL
Clouds: sky clear below 12,000 feet AGL
Weather: BR  (mist)

METAR text: UWLW 180000Z 04002MPS 5000 BR NSC 18/17 Q1013 R02/CLRD60 NOSIG RMK QFE753
Conditions at: UWLW (ULYANOVSK , RU) observed 0000 UTC 18 August 2019
Temperature: 18.0°C (64°F)
Dewpoint: 17.0°C (63°F) [RH = 94%]
Pressure (altimeter): 29.91 inches Hg (1013.0 mb)
Winds: from the NE (40 degrees) at 5 MPH (4 knots; 2.1 m/s)
Visibility: 3 miles ( 5 km)
Ceiling: at least 12,000 feet AGL
Clouds: sky clear below 12,000 feet AGL
Weather: BR  (mist)

METAR text: UWLW 172300Z 01002MPS 5000 BR NSC 18/18 Q1014 R02/CLRD60 NOSIG RMK QFE753
Conditions at: UWLW (ULYANOVSK , RU) observed 2300 UTC 17 August 2019
Temperature: 18.0°C (64°F)
Dewpoint: 18.0°C (64°F) [RH = 100%]
Pressure (altimeter): 29.94 inches Hg (1014.0 mb)
Winds: from the N (10 degrees) at 5 MPH (4 knots; 2.1 m/s)
Visibility: 3 miles ( 5 km)
Ceiling: at least 12,000 feet AGL
Clouds: sky clear below 12,000 feet AGL
Weather: BR  (mist)

METAR text: UWLW 172200Z 05002MPS 5000 BR NSC 18/17 Q1014 R02/CLRD60 NOSIG RMK QFE753
Conditions at: UWLW (ULYANOVSK , RU) observed 2200 UTC 17 August 2019
Temperature: 18.0°C (64°F)
Dewpoint: 17.0°C (63°F) [RH = 94%]
Pressure (altimeter): 29.94 inches Hg (1014.0 mb)
Winds: from the NE (50 degrees) at 5 MPH (4 knots; 2.1 m/s)
Visibility: 3 miles ( 5 km)
Ceiling: at least 12,000 feet AGL
Clouds: sky clear below 12,000 feet AGL
Weather: BR  (mist)

METAR text: UWLW 172100Z 03002MPS 5000 BR NSC 18/18 Q1014 R02/CLRD60 NOSIG RMK QFE753
Conditions at: UWLW (ULYANOVSK , RU) observed 2100 UTC 17 August 2019
Temperature: 18.0°C (64°F)
Dewpoint: 18.0°C (64°F) [RH = 100%]
Pressure (altimeter): 29.94 inches Hg (1014.0 mb)
Winds: from the NNE (30 degrees) at 5 MPH (4 knots; 2.1 m/s)
Visibility: 3 miles ( 5 km)
Ceiling: at least 12,000 feet AGL
Clouds: sky clear below 12,000 feet AGL
Weather: BR  (mist)

METAR text: UWLW 172000Z 04002MPS 5000 BR NSC 18/18 Q1014 R02/CLRD60 NOSIG RMK QFE754
Conditions at: UWLW (ULYANOVSK , RU) observed 2000 UTC 17 August 2019
Temperature: 18.0°C (64°F)
Dewpoint: 18.0°C (64°F) [RH = 100%]
Pressure (altimeter): 29.94 inches Hg (1014.0 mb)
Winds: from the NE (40 degrees) at 5 MPH (4 knots; 2.1 m/s)
Visibility: 3 miles ( 5 km)
Ceiling: at least 12,000 feet AGL
Clouds: sky clear below 12,000 feet AGL
Weather: BR  (mist)

METAR text: UWLW 171900Z 03002MPS 5000 BR NSC 19/18 Q1014 R02/CLRD60 NOSIG RMK QFE754
Conditions at: UWLW (ULYANOVSK , RU) observed 1900 UTC 17 August 2019
Temperature: 19.0°C (66°F)
Dewpoint: 18.0°C (64°F) [RH = 94%]
Pressure (altimeter): 29.94 inches Hg (1014.0 mb)
Winds: from the NNE (30 degrees) at 5 MPH (4 knots; 2.1 m/s)
Visibility: 3 miles ( 5 km)
Ceiling: at least 12,000 feet AGL
Clouds: sky clear below 12,000 feet AGL
Weather: BR  (mist)

METAR text: UWLW 171800Z 01001MPS 5000 BR NSC 20/19 Q1014 R02/CLRD60 NOSIG RMK QFE754
Conditions at: UWLW (ULYANOVSK , RU) observed 1800 UTC 17 August 2019
Temperature: 20.0°C (68°F)
Dewpoint: 19.0°C (66°F) [RH = 94%]
Pressure (altimeter): 29.94 inches Hg (1014.0 mb)
Winds: from the N (10 degrees) at 2 MPH (2 knots; 1.0 m/s)
Visibility: 3 miles ( 5 km)
Ceiling: at least 12,000 feet AGL
Clouds: sky clear below 12,000 feet AGL
Weather: BR  (mist)

METAR text: UWLW 171700Z 05002MPS 5000 FU NSC 21/20 Q1015 R02/CLRD60 NOSIG RMK QFE754
Conditions at: UWLW (ULYANOVSK , RU) observed 1700 UTC 17 August 2019
Temperature: 21.0°C (70°F)
Dewpoint: 20.0°C (68°F) [RH = 94%]
Pressure (altimeter): 29.97 inches Hg (1015.0 mb)
Winds: from the NE (50 degrees) at 5 MPH (4 knots; 2.1 m/s)
Visibility: 3 miles ( 5 km)
Ceiling: at least 12,000 feet AGL
Clouds: sky clear below 12,000 feet AGL
Weather: FU  (smoke)

Forecast for: UWLW (ULYANOVSK , RU)
Text: TAF UWLW 190145Z 1903/2003 17003MPS 8000 BKN030
Forecast period: 0300 UTC 19 August 2019 to 0300 UTC 20 August 2019
Forecast type: FROM: standard forecast or significant change
Winds: from the S (170 degrees) at 7 MPH (6 knots; 3.1 m/s)
Visibility: 5 miles (8 km)
Ceiling: 3000 feet AGL
Clouds: broken clouds at 3000 feet AGL
Weather: no significant weather forecast for this period
Text: TEMPO 1903/2003 12005G12MPS 3100 -SHRA BKN015CB
Forecast period: 0300 UTC 19 August 2019 to 0300 UTC 20 August 2019
Forecast type: TEMPORARY: The following changes expected for less than half the time period
Winds: from the ESE (120 degrees) at 12 MPH (10 knots; 5.1 m/s)
gusting to 26 MPH (23 knots; 11.8 m/s)
Visibility: 1.93 miles (3.11 km)
Ceiling: 1500 feet AGL
Clouds: broken clouds at 1500 feet AGL
Weather: -SHRA  (light rain showers)